Time;durP1;ratioP1;P1;durP2;ratioP2;P2;SDS_P1;SDS_P2;PMS_P1;PMS_P2;Temp;Humidity;BMP_temperature;BMP_pressure;BME280_temperature;BME280_humidity;BME280_pressure;Samples;Min_cycle;Max_cycle;Signal;HPM_P1;HPM_P2
2022/12/28 00:02:25;;;;;;;2.47;1.60;;;9.80;69.10;;;;;;5056596;28;20122;-52
2022/12/28 00:04:52;;;;;;;2.70;1.52;;;9.80;69.20;;;;;;5060743;28;20044;-49
2022/12/28 00:07:19;;;;;;;1.58;1.48;;;9.80;69.20;;;;;;5056237;28;20128;-52
2022/12/28 00:09:45;;;;;;;2.30;1.83;;;9.90;69.30;;;;;;5055821;28;20039;-48
2022/12/28 00:12:12;;;;;;;4.05;2.20;;;9.90;69.20;;;;;;5045591;28;20056;-48
2022/12/28 00:14:40;;;;;;;6.50;1.95;;;9.90;69.20;;;;;;5062909;28;20040;-48
2022/12/28 00:17:11;;;;;;;2.95;1.92;;;9.90;69.30;;;;;;5063911;28;20047;-52
2022/12/28 00:19:38;;;;;;;3.45;1.55;;;9.90;69.20;;;;;;5072254;28;20458;-50
2022/12/28 00:22:05;;;;;;;1.85;1.67;;;9.90;69.20;;;;;;5062031;28;20033;-49
2022/12/28 00:24:31;;;;;;;2.03;1.65;;;9.90;69.30;;;;;;5068578;28;20319;-50
2022/12/28 00:26:58;;;;;;;2.83;1.80;;;9.90;69.40;;;;;;5064745;28;20040;-50
2022/12/28 00:29:27;;;;;;;4.10;2.00;;;10.00;69.50;;;;;;5072085;28;20401;-50
2022/12/28 00:31:54;;;;;;;3.67;1.92;;;10.00;69.60;;;;;;5039973;28;20412;-51
2022/12/28 00:34:22;;;;;;;3.85;2.55;;;10.00;69.70;;;;;;5060781;28;20490;-51
2022/12/28 00:36:52;;;;;;;3.97;1.98;;;10.00;69.70;;;;;;5066927;28;20543;-50
2022/12/28 00:39:38;;;;;;;5.30;2.38;;;10.10;69.90;;;;;;5058782;28;20064;-50
2022/12/28 00:42:05;;;;;;;3.80;2.13;;;10.10;69.90;;;;;;5053508;28;20140;-52
2022/12/28 00:44:31;;;;;;;5.85;1.92;;;10.00;69.90;;;;;;5064012;28;20111;-51
2022/12/28 00:47:01;;;;;;;4.60;2.08;;;10.10;70.00;;;;;;5050761;28;20044;-49
2022/12/28 00:49:30;;;;;;;4.00;2.13;;;10.10;70.10;;;;;;5036162;28;20072;-51
2022/12/28 00:51:58;;;;;;;2.80;2.15;;;10.10;70.20;;;;;;5072218;28;20029;-48
2022/12/28 00:54:32;;;;;;;3.67;2.47;;;10.10;70.30;;;;;;5061701;28;20044;-49
2022/12/28 00:57:04;;;;;;;3.40;2.67;;;10.10;70.30;;;;;;5055606;28;20056;-50
2022/12/28 00:59:32;;;;;;;3.75;2.50;;;10.10;70.40;;;;;;5037421;28;20044;-52
2022/12/28 01:01:58;;;;;;;2.33;2.13;;;10.10;70.40;;;;;;5048893;28;20073;-51
2022/12/28 01:04:28;;;;;;;3.90;2.22;;;10.10;70.60;;;;;;5068791;28;20072;-52
2022/12/28 01:06:54;;;;;;;2.88;1.75;;;10.00;70.60;;;;;;5047361;28;20094;-51
2022/12/28 01:09:25;;;;;;;2.58;1.77;;;10.10;70.80;;;;;;5045506;28;20044;-48
2022/12/28 01:11:53;;;;;;;3.95;2.03;;;10.10;70.80;;;;;;5042725;28;20118;-53
2022/12/28 01:14:21;;;;;;;5.07;2.00;;;10.00;70.80;;;;;;5042862;28;20034;-48
2022/12/28 01:16:48;;;;;;;4.72;2.30;;;10.00;70.80;;;;;;5014606;28;20048;-48
2022/12/28 01:19:19;;;;;;;4.07;1.80;;;10.10;70.90;;;;;;5065110;28;20454;-48
2022/12/28 01:21:52;;;;;;;4.65;1.88;;;10.10;70.90;;;;;;5052372;28;20115;-49
2022/12/28 01:24:19;;;;;;;5.05;2.17;;;10.10;70.90;;;;;;5032838;28;20037;-48
2022/12/28 01:26:48;;;;;;;3.17;2.22;;;10.10;70.90;;;;;;5043955;28;20049;-51
2022/12/28 01:29:16;;;;;;;3.78;1.42;;;10.10;70.90;;;;;;5063263;28;20481;-52
2022/12/28 01:31:43;;;;;;;2.90;1.80;;;10.10;70.90;;;;;;5045259;28;20044;-48
2022/12/28 01:34:14;;;;;;;3.63;2.10;;;10.20;70.90;;;;;;5049750;28;20044;-52
2022/12/28 01:36:44;;;;;;;3.03;1.73;;;10.20;70.80;;;;;;5049293;28;20124;-51
2022/12/28 01:39:11;;;;;;;3.95;1.92;;;10.20;70.80;;;;;;5062761;28;20068;-48
2022/12/28 01:41:40;;;;;;;2.42;1.48;;;10.20;70.70;;;;;;5066127;28;20080;-48
2022/12/28 01:44:06;;;;;;;2.28;1.65;;;10.30;70.80;;;;;;5056158;28;20053;-49
2022/12/28 01:46:50;;;;;;;2.28;1.50;;;10.30;70.60;;;;;;5057923;28;20084;-49
2022/12/28 01:49:21;;;;;;;2.03;1.70;;;10.40;70.50;;;;;;5062835;28;20390;-52
2022/12/28 01:51:55;;;;;;;2.85;1.42;;;10.30;70.40;;;;;;5031627;28;20034;-52
2022/12/28 01:54:26;;;;;;;3.42;1.80;;;10.40;70.40;;;;;;5052998;28;20067;-51
2022/12/28 01:56:56;;;;;;;;;;;10.40;70.40;;;;;;5064847;28;20429;-50
2022/12/28 01:59:29;;;;;;;3.83;1.17;;;10.50;70.50;;;;;;5042943;28;20403;-49
2022/12/28 02:01:56;;;;;;;2.95;1.52;;;10.50;70.20;;;;;;5055460;28;20119;-51
2022/12/28 02:04:25;;;;;;;3.00;1.77;;;10.50;70.20;;;;;;5046093;28;20055;-52
2022/12/28 02:06:53;;;;;;;4.00;1.60;;;10.50;70.20;;;;;;5070765;28;20036;-51
2022/12/28 02:09:28;;;;;;;1.55;1.45;;;10.50;70.10;;;;;;5060665;28;20505;-52
2022/12/28 02:11:56;;;;;;;4.53;1.60;;;10.60;70.10;;;;;;5049266;28;20064;-52
2022/12/28 02:14:23;;;;;;;4.60;2.13;;;10.60;70.80;;;;;;5035656;28;20546;-50
2022/12/28 02:16:55;;;;;;;2.65;1.80;;;10.60;70.10;;;;;;5057729;28;20565;-50
2022/12/28 02:19:39;;;;;;;3.25;1.58;;;10.60;70.00;;;;;;5048471;28;20044;-49
2022/12/28 02:22:40;;;;;;;2.22;1.73;;;10.60;70.00;;;;;;5059032;28;20041;-49
2022/12/28 02:25:33;;;;;;;2.35;1.55;;;10.70;69.80;;;;;;5034105;28;20106;-48
2022/12/28 02:28:37;;;;;;;2.45;1.65;;;10.70;69.90;;;;;;5051547;28;20112;-49
2022/12/28 02:31:31;;;;;;;1.65;1.55;;;10.70;69.70;;;;;;5051383;28;20518;-51
2022/12/28 02:34:09;;;;;;;1.58;1.40;;;10.70;69.70;;;;;;5056850;28;20041;-49
2022/12/28 02:36:45;;;;;;;2.33;1.23;;;10.70;69.70;;;;;;5063851;28;20051;-49
2022/12/28 02:39:21;;;;;;;4.35;1.48;;;10.80;69.70;;;;;;5061008;28;20036;-50
2022/12/28 02:41:50;;;;;;;3.42;1.52;;;10.80;69.60;;;;;;5040855;28;20516;-52
2022/12/28 02:50:05;;;;;;;2.10;1.67;;;10.80;69.60;;;;;;5048847;28;20117;-52
2022/12/28 02:52:51;;;;;;;1.92;1.52;;;10.80;69.50;;;;;;5044489;28;20046;-49
2022/12/28 02:58:34;;;;;;;3.65;1.55;;;10.80;69.50;;;;;;5039055;28;20565;-52
2022/12/28 03:01:39;;;;;;;2.05;1.40;;;10.90;69.50;;;;;;5060945;28;20033;-48
2022/12/28 03:04:40;;;;;;;1.58;1.40;;;10.90;69.50;;;;;;5019528;28;20132;-52
2022/12/28 03:10:21;;;;;;;3.15;1.40;;;10.90;69.50;;;;;;5025437;28;20109;-52
2022/12/28 03:13:41;;;;;;;2.67;1.50;;;10.90;69.40;;;;;;5035702;28;20141;-52
2022/12/28 03:16:03;;;;;;;1.92;1.83;;;10.90;70.10;;;;;;5034012;28;20080;-48
2022/12/28 03:32:58;;;;;;;2.10;1.50;;;10.90;69.50;;;;;;5032529;28;20459;-50
2022/12/28 03:35:43;;;;;;;2.35;1.73;;;10.90;69.60;;;;;;5031336;28;20076;-49
2022/12/28 03:38:26;;;;;;;2.10;1.90;;;10.90;69.60;;;;;;5035091;28;20043;-48
2022/12/28 03:41:11;;;;;;;2.70;1.70;;;10.90;69.80;;;;;;5051828;28;20044;-51
2022/12/28 03:43:48;;;;;;;2.47;1.60;;;11.00;70.50;;;;;;5034118;28;20048;-51
2022/12/28 03:46:28;;;;;;;3.17;1.85;;;11.00;69.90;;;;;;5036557;28;20120;-48
2022/12/28 03:48:58;;;;;;;7.80;2.00;;;11.00;69.90;;;;;;5019413;28;20448;-51
2022/12/28 03:51:35;;;;;;;2.20;1.95;;;11.00;69.90;;;;;;5062044;28;20394;-48
2022/12/28 03:54:14;;;;;;;2.45;1.85;;;11.00;70.00;;;;;;5042606;28;20242;-49
2022/12/28 03:56:49;;;;;;;2.58;1.70;;;11.00;70.70;;;;;;5043389;28;20112;-51
2022/12/28 03:59:22;;;;;;;4.43;1.80;;;11.10;70.10;;;;;;5035105;28;20040;-52
2022/12/28 04:01:51;;;;;;;4.18;1.77;;;11.10;70.10;;;;;;5031841;28;20049;-50
2022/12/28 04:04:18;;;;;;;3.17;1.70;;;11.10;70.20;;;;;;5031170;28;20052;-50
2022/12/28 04:06:47;;;;;;;2.75;1.90;;;11.10;70.30;;;;;;5031642;28;20056;-49
2022/12/28 04:09:14;;;;;;;2.55;1.70;;;11.10;70.30;;;;;;5042450;28;20462;-50
2022/12/28 04:11:43;;;;;;;2.78;2.00;;;11.10;70.40;;;;;;5054658;28;20045;-48
2022/12/28 04:14:19;;;;;;;2.80;1.75;;;11.10;70.40;;;;;;5043712;28;20037;-51
2022/12/28 04:16:49;;;;;;;2.83;1.63;;;11.10;70.40;;;;;;5033623;28;20037;-49
2022/12/28 04:19:18;;;;;;;2.53;2.33;;;11.20;70.50;;;;;;5042557;28;20037;-51
2022/12/28 04:21:45;;;;;;;3.55;2.05;;;11.20;70.40;;;;;;5054835;28;20405;-48
2022/12/28 04:24:14;;;;;;;2.08;1.33;;;11.20;70.40;;;;;;5034140;28;20049;-52
2022/12/28 04:26:41;;;;;;;1.77;1.50;;;11.20;70.40;;;;;;5049841;28;20072;-51
2022/12/28 04:29:12;;;;;;;2.83;1.90;;;11.30;70.40;;;;;;5045145;28;20045;-49
2022/12/28 04:31:51;;;;;;;3.53;1.85;;;11.30;70.30;;;;;;5053143;28;20056;-51
2022/12/28 04:34:21;;;;;;;3.35;1.67;;;11.30;70.20;;;;;;5040603;28;20081;-52
2022/12/28 04:37:06;;;;;;;2.92;1.25;;;11.30;70.20;;;;;;5048035;28;20040;-50
2022/12/28 04:39:32;;;;;;;2.10;1.60;;;11.40;70.20;;;;;;5045381;28;20136;-50
2022/12/28 04:42:19;;;;;;;2.95;1.77;;;11.40;70.20;;;;;;5072338;28;20067;-49
2022/12/28 04:44:46;;;;;;;2.60;1.50;;;11.40;70.10;;;;;;5057659;28;20115;-49
2022/12/28 04:47:15;;;;;;;1.88;1.55;;;11.40;70.00;;;;;;5056785;28;20041;-52
2022/12/28 04:49:44;;;;;;;5.72;1.95;;;11.50;69.90;;;;;;5062495;28;20043;-50
2022/12/28 04:52:11;;;;;;;3.08;1.35;;;11.50;69.90;;;;;;5070287;28;20564;-50
2022/12/28 04:54:40;;;;;;;2.63;1.40;;;11.50;69.90;;;;;;5053993;28;20047;-51
2022/12/28 04:57:09;;;;;;;4.03;1.60;;;11.50;69.90;;;;;;5046032;28;20121;-51
2022/12/28 04:59:35;;;;;;;4.10;1.70;;;11.50;69.90;;;;;;5051956;28;20075;-49
2022/12/28 05:02:02;;;;;;;2.40;1.10;;;11.60;69.90;;;;;;5066690;28;20491;-48
2022/12/28 05:04:29;;;;;;;2.28;1.50;;;11.60;69.90;;;;;;5067204;28;20094;-48
2022/12/28 05:06:55;;;;;;;2.50;1.55;;;11.60;69.90;;;;;;5064235;28;20056;-51
2022/12/28 05:09:22;;;;;;;4.75;1.80;;;11.60;69.90;;;;;;5067742;28;20041;-52
2022/12/28 05:11:51;;;;;;;2.85;1.40;;;11.60;69.90;;;;;;5053339;28;20493;-52
2022/12/28 05:14:24;;;;;;;1.95;1.58;;;11.60;69.90;;;;;;5059650;28;20408;-49
2022/12/28 05:16:51;;;;;;;2.13;1.30;;;11.70;70.00;;;;;;5062378;28;20060;-51
2022/12/28 05:19:22;;;;;;;3.83;1.40;;;11.70;70.60;;;;;;5058536;28;20040;-50
2022/12/28 05:21:48;;;;;;;3.70;1.70;;;11.70;70.00;;;;;;5044993;28;20047;-52
2022/12/28 05:24:17;;;;;;;4.35;1.83;;;11.70;69.90;;;;;;5064076;28;20060;-52
2022/12/28 05:26:45;;;;;;;3.10;1.90;;;11.80;69.90;;;;;;5072402;28;20619;-52
2022/12/28 05:29:12;;;;;;;3.22;1.50;;;11.80;70.00;;;;;;5057575;28;20110;-48
2022/12/28 05:31:39;;;;;;;2.90;1.20;;;11.80;69.90;;;;;;5061871;28;20033;-49
2022/12/28 05:34:05;;;;;;;3.63;1.60;;;11.80;69.90;;;;;;5063573;28;20103;-52
2022/12/28 05:36:35;;;;;;;3.45;1.73;;;11.80;70.00;;;;;;5063471;28;20140;-47
2022/12/28 05:39:03;;;;;;;1.90;1.40;;;11.80;70.00;;;;;;5057169;28;20037;-52
2022/12/28 05:41:32;;;;;;;5.90;1.25;;;11.80;70.00;;;;;;5051935;28;20052;-51
2022/12/28 05:43:59;;;;;;;2.30;1.52;;;11.90;69.90;;;;;;5049229;28;20752;-50
2022/12/28 05:46:29;;;;;;;2.17;1.05;;;11.90;69.90;;;;;;5067269;28;20123;-48
2022/12/28 05:48:59;;;;;;;1.48;1.10;;;11.90;70.00;;;;;;5051346;28;20162;-51
2022/12/28 05:51:30;;;;;;;1.40;1.30;;;11.90;70.00;;;;;;5053928;28;20044;-48
2022/12/28 05:54:03;;;;;;;2.65;1.33;;;11.90;70.00;;;;;;5046584;28;20071;-48
2022/12/28 05:56:31;;;;;;;1.73;1.42;;;11.90;70.00;;;;;;5054618;28;20085;-52
2022/12/28 05:59:00;;;;;;;5.03;1.65;;;11.90;70.00;;;;;;5046448;28;20076;-52
2022/12/28 06:01:29;;;;;;;5.20;1.02;;;11.90;69.90;;;;;;5067483;28;20051;-49
2022/12/28 06:04:01;;;;;;;1.73;1.15;;;11.90;70.00;;;;;;5063045;28;20068;-52
2022/12/28 06:06:29;;;;;;;1.40;1.30;;;12.00;70.10;;;;;;5059111;28;20162;-49
2022/12/28 06:08:58;;;;;;;2.25;1.15;;;12.00;70.00;;;;;;5048759;28;20064;-50
2022/12/28 06:11:29;;;;;;;5.05;1.08;;;12.00;70.00;;;;;;5070392;28;20061;-49
2022/12/28 06:13:57;;;;;;;1.42;1.02;;;12.00;70.10;;;;;;5062663;28;20055;-51
2022/12/28 06:16:31;;;;;;;1.23;1.05;;;12.00;70.20;;;;;;5070104;28;20741;-48
2022/12/28 06:18:58;;;;;;;3.97;1.10;;;12.00;70.10;;;;;;5042173;28;20124;-53
2022/12/28 06:21:30;;;;;;;2.38;1.02;;;12.00;70.10;;;;;;5049724;28;20053;-49
2022/12/28 06:24:01;;;;;;;2.33;1.13;;;12.00;70.10;;;;;;5033795;28;20062;-52
2022/12/28 06:26:34;;;;;;;1.60;1.40;;;12.00;70.10;;;;;;5049922;28;20408;-51
2022/12/28 06:29:05;;;;;;;0.88;0.73;;;12.00;70.10;;;;;;5053185;28;20049;-52
2022/12/28 06:31:37;;;;;;;1.90;1.15;;;12.00;70.20;;;;;;5065971;28;20070;-52
2022/12/28 06:34:06;;;;;;;1.92;1.35;;;12.00;70.30;;;;;;5059783;28;20060;-52
2022/12/28 06:36:41;;;;;;;2.22;1.00;;;12.00;70.40;;;;;;5063276;28;20044;-49
2022/12/28 06:39:10;;;;;;;2.17;1.17;;;12.00;70.40;;;;;;5061279;28;20032;-49
2022/12/28 06:41:38;;;;;;;1.55;1.20;;;12.00;70.40;;;;;;5070194;28;20127;-50
2022/12/28 06:44:09;;;;;;;2.78;1.38;;;12.00;70.40;;;;;;5055065;28;20040;-51
2022/12/28 06:46:38;;;;;;;1.85;1.20;;;12.00;70.40;;;;;;5060956;28;20128;-50
2022/12/28 06:49:07;;;;;;;2.10;1.15;;;12.00;70.50;;;;;;5064483;28;20045;-51
2022/12/28 06:51:40;;;;;;;3.22;1.30;;;12.00;70.40;;;;;;5029138;28;20132;-52
2022/12/28 06:54:09;;;;;;;1.90;0.85;;;12.00;70.40;;;;;;5055673;28;20063;-50
2022/12/28 06:56:36;;;;;;;1.30;0.80;;;12.00;70.40;;;;;;5053730;28;20087;-52
2022/12/28 06:59:04;;;;;;;2.13;0.88;;;12.00;70.30;;;;;;5055345;28;20036;-52
2022/12/28 07:01:37;;;;;;;2.15;0.95;;;12.10;70.30;;;;;;5062401;28;20122;-48
2022/12/28 07:04:08;;;;;;;3.22;1.00;;;12.00;70.10;;;;;;5045372;28;20032;-50
2022/12/28 07:06:44;;;;;;;1.10;0.80;;;12.10;70.20;;;;;;5066067;28;20045;-49
2022/12/28 07:09:15;;;;;;;3.35;1.08;;;12.10;70.20;;;;;;5060343;28;20071;-50
2022/12/28 07:11:48;;;;;;;1.63;0.73;;;12.10;70.20;;;;;;5048759;28;20119;-51
2022/12/28 07:14:14;;;;;;;3.20;0.98;;;12.10;70.20;;;;;;5045976;28;20063;-52
2022/12/28 07:16:41;;;;;;;2.38;1.10;;;12.10;70.30;;;;;;5060071;28;20180;-49
2022/12/28 07:19:09;;;;;;;1.15;1.08;;;12.10;70.40;;;;;;5061889;28;20039;-52
2022/12/28 07:21:38;;;;;;;2.15;0.80;;;12.10;70.40;;;;;;5065938;28;20146;-49
2022/12/28 07:24:14;;;;;;;0.80;0.70;;;12.10;70.50;;;;;;5040627;28;20041;-51
2022/12/28 07:26:43;;;;;;;1.67;0.70;;;12.10;70.50;;;;;;5054669;28;20505;-52
2022/12/28 07:29:10;;;;;;;0.70;0.70;;;12.10;70.60;;;;;;5044199;28;20067;-50
2022/12/28 07:31:39;;;;;;;1.38;1.20;;;12.10;70.70;;;;;;5050594;28;20094;-50
2022/12/28 07:34:12;;;;;;;2.65;1.08;;;12.10;70.70;;;;;;5059587;28;20053;-52
2022/12/28 07:36:47;;;;;;;1.50;1.40;;;12.10;70.80;;;;;;5055716;28;20095;-48
2022/12/28 07:39:16;;;;;;;1.80;1.00;;;12.10;70.90;;;;;;5043105;28;20044;-51
2022/12/28 07:41:43;;;;;;;2.28;1.50;;;12.10;70.90;;;;;;5046012;28;20427;-50
2022/12/28 07:44:09;;;;;;;2.60;0.98;;;12.10;71.00;;;;;;5044621;28;20055;-50
2022/12/28 07:46:37;;;;;;;1.92;0.90;;;12.10;71.10;;;;;;5038934;28;20046;-53
2022/12/28 07:49:04;;;;;;;2.83;1.17;;;12.10;71.20;;;;;;5044470;28;20079;-51
2022/12/28 07:51:34;;;;;;;1.48;1.10;;;12.10;71.30;;;;;;5046462;28;20124;-51
2022/12/28 07:54:02;;;;;;;2.08;0.85;;;12.10;71.40;;;;;;5041699;28;20174;-53
2022/12/28 07:56:30;;;;;;;1.83;1.17;;;12.10;71.40;;;;;;5041049;28;20041;-49
2022/12/28 07:58:59;;;;;;;1.30;0.75;;;12.10;71.50;;;;;;5051609;28;20067;-51
2022/12/28 08:01:28;;;;;;;1.67;0.88;;;12.10;71.60;;;;;;5048190;28;20095;-53
2022/12/28 08:03:57;;;;;;;1.98;1.00;;;12.10;71.70;;;;;;5056189;28;20569;-51
2022/12/28 08:06:25;;;;;;;2.38;1.30;;;12.10;71.80;;;;;;5051589;28;20079;-51
2022/12/28 08:08:59;;;;;;;1.02;0.93;;;12.00;71.80;;;;;;5042334;28;20128;-52
2022/12/28 08:11:29;;;;;;;1.40;1.30;;;12.00;71.90;;;;;;5058957;28;20071;-50
2022/12/28 08:13:57;;;;;;;2.10;1.10;;;12.00;72.60;;;;;;5051831;28;20505;-52
2022/12/28 08:16:25;;;;;;;1.65;1.00;;;12.00;72.00;;;;;;5050543;28;20037;-49
2022/12/28 08:18:54;;;;;;;1.15;1.05;;;12.00;72.00;;;;;;5060149;28;20032;-52
2022/12/28 08:21:27;;;;;;;1.35;0.80;;;12.10;72.10;;;;;;5066030;28;20540;-51
2022/12/28 08:23:54;;;;;;;2.75;0.80;;;12.00;72.10;;;;;;5043836;28;20049;-50
2022/12/28 08:26:27;;;;;;;1.50;1.00;;;12.00;72.00;;;;;;5050896;28;20051;-51
2022/12/28 08:28:56;;;;;;;2.10;1.02;;;12.10;72.70;;;;;;5037887;28;20040;-51
2022/12/28 08:31:27;;;;;;;1.58;1.00;;;12.10;72.00;;;;;;5040246;28;20129;-51
2022/12/28 08:33:56;;;;;;;1.77;0.98;;;12.10;71.90;;;;;;5043717;28;20045;-49
2022/12/28 08:36:23;;;;;;;1.15;0.73;;;12.10;72.50;;;;;;5044343;28;20052;-50
2022/12/28 08:38:50;;;;;;;1.38;1.05;;;12.10;71.90;;;;;;5045338;28;20045;-52
2022/12/28 08:41:19;;;;;;;0.93;0.60;;;12.10;71.80;;;;;;5066573;28;20043;-49
2022/12/28 08:43:47;;;;;;;0.73;0.70;;;12.10;71.70;;;;;;5063667;28;20106;-53
2022/12/28 08:46:16;;;;;;;2.10;1.10;;;12.20;71.80;;;;;;5045846;28;20095;-52
2022/12/28 08:48:45;;;;;;;0.70;0.70;;;12.20;71.70;;;;;;5040423;28;20486;-50
2022/12/28 08:51:22;;;;;;;1.90;0.80;;;12.20;71.60;;;;;;5032353;28;20120;-48
2022/12/28 08:53:49;;;;;;;1.92;0.77;;;12.20;71.60;;;;;;5038695;28;20050;-53
2022/12/28 08:56:22;;;;;;;0.80;0.80;;;12.30;71.60;;;;;;5037928;28;20052;-49
2022/12/28 08:58:49;;;;;;;1.05;0.75;;;12.30;71.50;;;;;;5035858;28;20132;-49
2022/12/28 09:01:21;;;;;;;1.00;0.90;;;12.30;71.50;;;;;;5028608;28;20523;-51
2022/12/28 09:03:50;;;;;;;1.20;0.90;;;12.30;72.00;;;;;;5030269;28;20128;-48
2022/12/28 09:06:19;;;;;;;1.50;1.38;;;12.30;71.40;;;;;;5041930;28;20080;-49
2022/12/28 09:08:50;;;;;;;1.77;0.70;;;12.30;71.30;;;;;;5035660;28;20456;-52
2022/12/28 09:11:37;;;;;;;3.75;1.33;;;12.40;71.30;;;;;;5030316;28;20624;-49
2022/12/28 09:14:06;;;;;;;0.80;0.60;;;12.40;71.20;;;;;;5036399;28;20091;-49
2022/12/28 09:16:34;;;;;;;1.38;0.88;;;12.40;71.30;;;;;;5041460;28;20052;-52
2022/12/28 09:19:03;;;;;;;1.45;0.52;;;12.40;71.20;;;;;;5043429;28;20696;-49
2022/12/28 09:21:32;;;;;;;1.20;0.82;;;12.50;71.20;;;;;;5030292;28;20081;-51
2022/12/28 09:23:59;;;;;;;2.03;0.95;;;12.50;71.20;;;;;;5032322;28;20036;-53
2022/12/28 09:26:29;;;;;;;1.75;1.05;;;12.50;71.20;;;;;;5052179;28;20136;-52
2022/12/28 09:28:59;;;;;;;2.33;1.00;;;12.50;71.10;;;;;;5054755;28;20040;-49
2022/12/28 09:31:28;;;;;;;1.40;0.90;;;12.50;71.10;;;;;;5045934;28;20048;-48
2022/12/28 09:33:58;;;;;;;0.88;0.85;;;12.50;71.70;;;;;;5047929;28;20033;-52
2022/12/28 09:36:45;;;;;;;0.70;0.70;;;12.50;71.10;;;;;;5068139;28;20420;-50
2022/12/28 09:39:17;;;;;;;0.50;0.47;;;12.60;71.00;;;;;;5054487;28;20069;-52
2022/12/28 09:41:48;;;;;;;0.98;0.73;;;12.60;71.00;;;;;;5041052;28;20057;-52
2022/12/28 09:44:35;;;;;;;1.05;0.80;;;12.60;70.90;;;;;;5053649;28;20046;-52
2022/12/28 09:47:23;;;;;;;1.85;0.90;;;12.60;70.70;;;;;;5048211;28;20532;-49
2022/12/28 09:50:10;;;;;;;2.15;1.00;;;12.70;70.50;;;;;;5065040;28;20075;-50
2022/12/28 09:52:56;;;;;;;0.63;0.60;;;12.70;70.50;;;;;;5045176;28;20119;-50
2022/12/28 09:55:24;;;;;;;1.48;0.80;;;12.70;70.50;;;;;;5048005;28;20033;-52
2022/12/28 09:57:54;;;;;;;0.80;0.80;;;12.70;70.50;;;;;;5056828;28;20065;-49
2022/12/28 10:00:59;;;;;;;1.10;0.88;;;12.80;70.60;;;;;;5043571;28;20045;-49
2022/12/28 10:03:33;;;;;;;0.95;0.50;;;12.80;70.60;;;;;;5062783;28;20056;-52
2022/12/28 10:06:02;;;;;;;0.60;0.60;;;12.80;70.60;;;;;;5051479;28;20041;-52
2022/12/28 10:08:29;;;;;;;0.82;0.82;;;12.80;70.60;;;;;;5046433;28;20047;-53
2022/12/28 10:11:00;;;;;;;1.30;0.60;;;12.80;70.60;;;;;;5042963;28;20041;-52
2022/12/28 10:13:34;;;;;;;0.73;0.70;;;12.80;70.50;;;;;;5049800;28;20120;-52
2022/12/28 10:16:23;;;;;;;3.10;0.70;;;12.80;70.40;;;;;;5048739;28;20052;-51
2022/12/28 10:18:50;;;;;;;1.27;0.65;;;12.80;70.50;;;;;;5030724;28;20045;-52
2022/12/28 10:21:19;;;;;;;3.00;1.00;;;12.90;70.40;;;;;;5045823;28;20484;-52
2022/12/28 10:23:51;;;;;;;2.38;1.13;;;12.90;70.40;;;;;;5053110;28;20120;-53
2022/12/28 10:26:39;;;;;;;1.98;0.75;;;12.90;70.30;;;;;;5049334;28;20049;-52
2022/12/28 10:29:17;;;;;;;1.27;0.63;;;12.90;70.20;;;;;;5048148;28;20055;-52
2022/12/28 10:31:59;;;;;;;2.08;0.80;;;13.00;70.20;;;;;;5045033;28;20045;-48
2022/12/28 10:34:27;;;;;;;1.00;0.60;;;13.00;70.10;;;;;;5062996;28;20048;-52
2022/12/28 10:37:14;;;;;;;1.80;0.68;;;13.00;70.10;;;;;;5024946;28;20033;-53
2022/12/28 10:39:56;;;;;;;0.90;0.90;;;13.00;69.90;;;;;;5043435;28;20049;-52
2022/12/28 10:42:38;;;;;;;2.00;0.65;;;13.10;69.90;;;;;;5047085;28;20087;-52
2022/12/28 10:45:33;;;;;;;2.10;1.00;;;13.10;69.70;;;;;;5041746;28;20047;-52
2022/12/28 10:48:01;;;;;;;1.88;1.25;;;13.10;69.60;;;;;;5034774;28;20037;-53
2022/12/28 10:50:44;;;;;;;3.10;1.40;;;13.10;69.80;;;;;;5040679;28;20051;-52
2022/12/28 10:53:37;;;;;;;1.33;0.93;;;13.20;69.40;;;;;;5049424;28;20042;-49
2022/12/28 10:56:13;;;;;;;1.05;0.70;;;13.20;69.30;;;;;;5048754;28;20088;-52
2022/12/28 10:58:42;;;;;;;2.20;0.80;;;13.20;69.30;;;;;;5032163;28;20045;-52
2022/12/28 11:01:11;;;;;;;2.53;1.20;;;13.20;69.40;;;;;;5037162;28;20037;-52
2022/12/28 11:03:59;;;;;;;0.75;0.75;;;13.20;69.30;;;;;;5044656;28;20049;-53
2022/12/28 11:06:28;;;;;;;0.95;0.73;;;13.20;68.90;;;;;;5065414;23;20079;-46
2022/12/28 11:09:03;;;;;;;2.00;0.70;;;13.20;69.20;;;;;;5051538;28;20416;-49
2022/12/28 11:11:32;;;;;;;0.77;0.75;;;13.30;69.00;;;;;;5070328;28;20472;-47
2022/12/28 11:14:16;;;;;;;1.85;0.88;;;13.30;69.20;;;;;;5057460;28;20039;-47
2022/12/28 11:16:43;;;;;;;2.35;1.00;;;13.30;68.80;;;;;;5062113;28;20714;-47
2022/12/28 11:19:11;;;;;;;1.15;0.80;;;13.30;69.00;;;;;;5044944;28;20037;-48
2022/12/28 11:21:39;;;;;;;0.85;0.70;;;13.40;69.00;;;;;;5045196;28;20080;-48
2022/12/28 11:24:10;;;;;;;3.50;1.25;;;13.30;69.00;;;;;;5045754;28;20037;-47
2022/12/28 11:26:38;;;;;;;3.10;0.95;;;13.30;68.90;;;;;;5038309;28;20052;-47
2022/12/28 11:29:05;;;;;;;2.53;0.80;;;13.40;69.10;;;;;;5045632;28;20037;-47
2022/12/28 11:31:40;;;;;;;0.90;0.80;;;13.30;69.10;;;;;;5041145;28;20150;-47
2022/12/28 11:34:16;;;;;;;1.30;0.85;;;13.30;69.10;;;;;;5043505;28;20040;-47
2022/12/28 11:36:43;;;;;;;2.63;0.90;;;13.40;69.10;;;;;;5038323;28;20047;-48
2022/12/28 11:39:25;;;;;;;1.88;1.02;;;13.40;69.10;;;;;;5042166;28;20069;-47
2022/12/28 11:41:56;;;;;;;1.10;0.73;;;13.50;68.70;;;;;;5039158;28;20435;-47
2022/12/28 11:44:47;;;;;;;1.58;1.23;;;13.50;68.70;;;;;;5039318;28;20038;-48
2022/12/28 11:47:16;;;;;;;1.60;1.00;;;13.50;68.70;;;;;;5037364;28;20037;-47
2022/12/28 11:49:45;;;;;;;1.58;1.17;;;13.60;68.80;;;;;;5040852;28;20045;-47
2022/12/28 11:52:25;;;;;;;3.17;1.00;;;13.60;68.50;;;;;;5038770;28;20048;-47
2022/12/28 11:54:54;;;;;;;2.05;0.70;;;13.60;68.40;;;;;;5038966;28;20047;-52
2022/12/28 11:57:38;;;;;;;2.63;0.85;;;13.60;68.40;;;;;;5037024;28;20033;-51
2022/12/28 12:00:37;;;;;;;2.50;1.00;;;13.60;68.00;;;;;;5039794;28;20045;-48
2022/12/28 12:03:04;;;;;;;2.03;0.90;;;13.60;67.90;;;;;;5037594;28;20517;-50
2022/12/28 12:05:37;;;;;;;3.33;1.13;;;13.60;68.20;;;;;;5044634;28;20041;-48
2022/12/28 12:08:16;;;;;;;2.45;1.02;;;13.70;67.90;;;;;;5034980;28;20044;-48
2022/12/28 12:10:44;;;;;;;1.25;0.75;;;13.70;67.80;;;;;;5045604;28;20750;-47
2022/12/28 12:13:37;;;;;;;2.53;0.88;;;13.70;67.90;;;;;;5046515;28;20033;-48
2022/12/28 12:16:16;;;;;;;2.88;0.60;;;13.60;67.10;;;;;;5041831;28;20049;-48
2022/12/28 12:18:47;;;;;;;0.60;0.50;;;13.60;67.60;;;;;;5045449;28;20045;-48
2022/12/28 12:21:45;;;;;;;1.63;0.70;;;13.60;67.50;;;;;;5046624;28;20041;-48
2022/12/28 12:24:36;;;;;;;0.95;0.60;;;13.60;67.20;;;;;;5027717;28;20049;-51
2022/12/28 12:27:37;;;;;;;1.13;0.60;;;13.60;67.00;;;;;;5040320;28;20041;-51
2022/12/28 12:30:14;;;;;;;2.47;0.70;;;13.60;67.30;;;;;;5043324;28;20665;-49
2022/12/28 12:32:48;;;;;;;1.92;0.70;;;13.60;67.40;;;;;;5047609;28;20044;-47
2022/12/28 12:35:18;;;;;;;1.02;0.70;;;13.60;67.40;;;;;;5052139;28;20115;-47
2022/12/28 12:38:05;;;;;;;0.85;0.60;;;13.60;67.50;;;;;;5025204;28;20041;-47
2022/12/28 12:44:33;;;;;;;1.30;0.90;;;13.60;67.10;;;;;;5024452;28;20029;-51
2022/12/28 12:47:21;;;;;;;3.67;0.65;;;13.60;66.70;;;;;;5049955;28;20099;-50
2022/12/28 12:50:30;;;;;;;0.73;0.60;;;13.60;66.80;;;;;;5052611;28;20678;-51
2022/12/28 12:53:15;;;;;;;3.15;0.90;;;13.60;66.70;;;;;;5042629;28;20116;-49
2022/12/28 12:55:53;;;;;;;3.38;1.10;;;13.60;67.00;;;;;;5044861;28;20041;-49
2022/12/28 12:58:33;;;;;;;1.67;0.82;;;13.60;66.40;;;;;;5045090;28;20037;-51
2022/12/28 13:01:25;;;;;;;2.22;0.68;;;13.60;66.30;;;;;;5030873;28;20033;-53
2022/12/28 13:03:59;;;;;;;1.33;0.98;;;13.60;66.00;;;;;;5049356;28;20056;-51
2022/12/28 13:06:29;;;;;;;0.77;0.65;;;13.60;66.20;;;;;;5049147;28;20423;-50
2022/12/28 13:09:03;;;;;;;1.60;0.93;;;13.60;66.30;;;;;;5050788;28;20048;-52
2022/12/28 13:11:37;;;;;;;1.08;0.98;;;13.70;66.20;;;;;;5045919;28;20045;-51
2022/12/28 13:14:17;;;;;;;1.48;0.90;;;13.60;66.10;;;;;;5048769;28;20036;-49
2022/12/28 13:16:54;;;;;;;0.80;0.77;;;13.70;65.70;;;;;;5047605;28;20041;-51
2022/12/28 13:19:25;;;;;;;1.10;0.80;;;13.70;65.50;;;;;;5050964;28;20041;-55
2022/12/28 13:21:52;;;;;;;1.98;0.77;;;13.70;65.50;;;;;;5039971;28;20045;-54
2022/12/28 13:24:24;;;;;;;1.25;0.90;;;13.70;65.60;;;;;;5038222;28;20041;-53
2022/12/28 13:26:51;;;;;;;3.53;1.00;;;13.70;65.50;;;;;;5047890;28;20091;-54
2022/12/28 13:29:21;;;;;;;1.67;1.10;;;13.70;65.40;;;;;;5025294;28;20517;-54
2022/12/28 13:31:48;;;;;;;2.33;0.90;;;13.70;65.20;;;;;;5049857;28;20533;-54
2022/12/28 13:34:20;;;;;;;4.43;2.05;;;13.70;65.40;;;;;;5039960;28;20048;-55
2022/12/28 13:36:55;;;;;;;2.63;2.20;;;13.70;65.40;;;;;;5051606;28;20439;-54
2022/12/28 13:39:25;;;;;;;2.50;1.50;;;13.70;65.40;;;;;;5046593;28;20124;-53
2022/12/28 13:42:10;;;;;;;4.10;2.92;;;13.70;65.20;;;;;;5039368;28;20052;-54
2022/12/28 13:45:06;;;;;;;6.00;3.00;;;13.70;65.20;;;;;;5050193;28;20135;-55
2022/12/28 13:47:40;;;;;;;5.43;4.45;;;13.70;64.60;;;;;;5042831;28;20048;-55
2022/12/28 13:50:10;;;;;;;4.10;3.65;;;13.70;64.90;;;;;;5044999;28;20051;-54